Time;durP1;ratioP1;P1;durP2;ratioP2;P2;SDS_P1;SDS_P2;PMS_P1;PMS_P2;Temp;Humidity;BMP_temperature;BMP_pressure;BME280_temperature;BME280_humidity;BME280_pressure;Samples;Min_cycle;Max_cycle;Signal;HPM_P1;HPM_P2
2023/10/13 00:02:10;;;;;;;1103.85;999.90;;;;;;;24.96;60.75;98684.56;5031903;27;103131;-66
2023/10/13 00:04:38;;;;;;;1125.57;999.90;;;;;;;24.32;63.14;98690.25;5037053;27;103726;-66
2023/10/13 00:07:11;;;;;;;1126.17;999.90;;;;;;;24.17;64.08;98682.25;5049186;27;103271;-66
2023/10/13 00:09:40;;;;;;;1128.07;999.90;;;;;;;24.30;64.17;98681.53;5052841;27;103326;-67
2023/10/13 00:12:13;;;;;;;1129.05;999.90;;;;;;;24.93;61.76;98677.69;5033706;27;102842;-66
2023/10/13 00:14:45;;;;;;;1202.43;999.90;;;;;;;25.06;60.29;98679.63;5051026;27;102768;-66
2023/10/13 00:17:20;;;;;;;1144.73;999.90;;;;;;;24.78;61.59;98674.28;5052513;27;103381;-67
2023/10/13 00:19:52;;;;;;;1145.20;999.90;;;;;;;24.43;62.68;98668.09;5049096;27;103212;-66
2023/10/13 00:22:22;;;;;;;1157.25;999.90;;;;;;;24.58;62.40;98660.69;5044374;27;102601;-67
2023/10/13 00:24:58;;;;;;;1138.85;999.90;;;;;;;24.08;64.93;98667.22;5054454;27;104217;-66
2023/10/13 00:34:28;;;;;;;1175.20;999.90;;;;;;;22.30;70.92;98666.31;4952787;28;103201;-74
2023/10/13 00:39:56;;;;;;;1185.83;999.90;;;;;;;23.12;66.65;98666.97;5112500;27;102844;-67
2023/10/13 00:42:47;;;;;;;1186.35;999.90;;;;;;;23.56;64.13;98667.63;5102659;27;103452;-67
2023/10/13 00:45:17;;;;;;;1167.63;999.90;;;;;;;23.00;65.69;98665.78;5099301;27;103970;-67
2023/10/13 00:47:58;;;;;;;1158.00;999.90;;;;;;;23.28;64.79;98664.00;5081241;27;103271;-67
2023/10/13 00:50:25;;;;;;;1175.20;999.90;;;;;;;23.24;64.73;98668.13;5081191;27;102814;-67
2023/10/13 00:52:54;;;;;;;1167.68;999.90;;;;;;;23.36;64.35;98671.13;5082867;27;104181;-67
2023/10/13 00:55:23;;;;;;;1185.67;999.90;;;;;;;23.36;63.96;98671.97;5100490;27;103692;-67
2023/10/13 00:57:57;;;;;;;1196.70;999.90;;;;;;;22.45;68.12;98667.16;5080576;27;104253;-67
2023/10/13 01:00:25;;;;;;;1172.67;999.90;;;;;;;22.58;68.71;98661.09;5078987;27;102988;-69
2023/10/13 01:02:56;;;;;;;1175.18;999.90;;;;;;;22.96;65.42;98672.59;5076661;27;104226;-69
2023/10/13 01:05:26;;;;;;;1167.33;999.90;;;;;;;23.27;64.63;98664.22;5078870;27;104286;-67
2023/10/13 01:07:54;;;;;;;1161.93;999.90;;;;;;;22.88;65.78;98678.06;5079816;27;104314;-67
2023/10/13 01:10:27;;;;;;;1177.30;999.90;;;;;;;23.07;64.73;98670.22;5079978;27;102740;-67
2023/10/13 01:12:55;;;;;;;1184.28;999.90;;;;;;;23.11;63.33;98662.59;5076505;27;102961;-67
2023/10/13 01:15:29;;;;;;;1197.30;999.90;;;;;;;23.49;61.87;98665.91;5099726;27;104434;-68
2023/10/13 01:18:10;;;;;;;1175.03;999.90;;;;;;;22.85;64.10;98656.94;5096759;27;103333;-68
2023/10/13 01:20:43;;;;;;;1171.07;999.90;;;;;;;22.64;63.97;98659.56;5096769;27;103041;-68
2023/10/13 01:23:18;;;;;;;1177.40;999.90;;;;;;;22.26;66.33;98645.38;5100742;27;103043;-68
2023/10/13 01:25:48;;;;;;;1192.85;999.90;;;;;;;23.06;63.65;98652.41;5097069;27;103376;-68
2023/10/13 01:28:16;;;;;;;1179.97;999.90;;;;;;;23.38;62.13;98648.38;5096995;27;104030;-68
2023/10/13 01:30:49;;;;;;;1188.43;999.90;;;;;;;23.43;61.42;98650.50;5074596;27;102686;-68
2023/10/13 01:33:17;;;;;;;1192.75;999.90;;;;;;;23.28;61.49;98644.31;5079490;27;104041;-68
2023/10/13 01:35:48;;;;;;;1188.25;999.90;;;;;;;22.92;62.61;98641.66;5081281;27;104213;-68
2023/10/13 01:38:16;;;;;;;1182.97;999.90;;;;;;;22.90;63.83;98646.41;5100578;27;103246;-68
2023/10/13 01:40:51;;;;;;;1186.78;999.90;;;;;;;22.96;62.54;98642.97;5074594;27;102701;-68
2023/10/13 01:43:19;;;;;;;1201.60;999.90;;;;;;;23.07;62.46;98635.19;5081984;27;103605;-68
2023/10/13 01:45:47;;;;;;;1183.73;999.90;;;;;;;22.96;62.47;98637.56;5098970;27;104454;-68
2023/10/13 01:48:21;;;;;;;1188.32;999.90;;;;;;;23.14;60.89;98646.03;5098903;27;102636;-68
2023/10/13 01:50:55;;;;;;;1209.23;999.90;;;;;;;23.18;60.76;98639.25;5083343;27;103149;-68
2023/10/13 01:53:28;;;;;;;1196.72;999.90;;;;;;;23.37;59.48;98635.91;5066071;27;102730;-68
2023/10/13 01:55:57;;;;;;;1199.57;999.90;;;;;;;23.33;60.02;98637.31;5063623;27;104258;-68
2023/10/13 01:58:30;;;;;;;1208.28;999.90;;;;;;;23.17;60.20;98634.88;5064862;27;105131;-68
2023/10/13 02:00:57;;;;;;;1226.35;999.90;;;;;;;23.11;60.25;98635.66;5084397;27;102720;-67
2023/10/13 02:03:29;;;;;;;1204.32;999.90;;;;;;;23.11;60.30;98635.66;5064724;27;102777;-68
2023/10/13 02:06:04;;;;;;;1191.75;999.90;;;;;;;22.94;60.76;98635.06;5066882;27;104177;-68
2023/10/13 02:08:39;;;;;;;1224.63;999.90;;;;;;;23.05;60.07;98631.84;5065964;27;104260;-68
2023/10/13 02:11:07;;;;;;;1212.75;999.90;;;;;;;22.91;59.94;98627.34;5065222;27;102755;-68
2023/10/13 02:13:41;;;;;;;1214.15;999.90;;;;;;;22.35;61.42;98625.38;5064498;27;102847;-68
2023/10/13 02:16:09;;;;;;;1211.47;999.90;;;;;;;22.76;60.31;98629.28;5063906;27;104131;-68
2023/10/13 02:18:43;;;;;;;1211.97;999.90;;;;;;;21.51;63.68;98623.06;5084295;27;103259;-68
2023/10/13 02:21:13;;;;;;;1205.60;999.90;;;;;;;22.11;60.49;98614.94;5066078;27;102686;-67
2023/10/13 02:23:45;;;;;;;1221.07;999.90;;;;;;;22.45;59.96;98613.34;5084894;27;103796;-67
2023/10/13 02:26:14;;;;;;;1226.95;999.90;;;;;;;22.32;60.60;98615.00;5063503;27;103773;-67
2023/10/13 02:28:44;;;;;;;1237.40;999.90;;;;;;;22.62;59.36;98602.34;5063815;27;104415;-67
2023/10/13 02:31:11;;;;;;;1225.32;999.90;;;;;;;22.96;58.40;98594.47;5086141;27;103145;-68
2023/10/13 02:33:44;;;;;;;1229.70;999.90;;;;;;;22.71;58.40;98599.38;5082995;27;104050;-68
2023/10/13 02:36:12;;;;;;;1218.40;999.90;;;;;;;22.56;58.56;98593.16;5066473;27;106852;-68
2023/10/13 02:38:46;;;;;;;1231.13;999.90;;;;;;;22.57;59.09;98588.63;5065163;27;104514;-68
2023/10/13 02:41:23;;;;;;;1207.38;999.90;;;;;;;21.92;60.68;98589.44;5066704;27;102769;-68
2023/10/13 02:43:53;;;;;;;1217.47;999.90;;;;;;;21.72;60.08;98588.25;5079979;27;103222;-68
2023/10/13 02:46:21;;;;;;;1216.40;999.90;;;;;;;22.01;59.72;98587.47;5065881;27;103950;-68
2023/10/13 02:48:53;;;;;;;1233.63;999.90;;;;;;;22.36;58.96;98584.84;5065557;27;104222;-68
2023/10/13 02:51:25;;;;;;;1233.15;999.90;;;;;;;22.25;58.99;98584.50;5083772;27;102587;-68
2023/10/13 02:53:53;;;;;;;1225.55;999.90;;;;;;;21.82;59.60;98578.06;5085504;27;103661;-68
2023/10/13 02:56:25;;;;;;;1244.25;999.90;;;;;;;22.41;58.48;98573.50;5085270;27;103420;-68
2023/10/13 02:58:56;;;;;;;1239.15;999.90;;;;;;;22.19;58.81;98575.31;5066387;27;103449;-68
2023/10/13 03:01:28;;;;;;;1254.53;999.90;;;;;;;22.48;58.43;98580.63;5079746;27;102960;-68
2023/10/13 03:03:58;;;;;;;1246.93;999.90;;;;;;;22.46;57.86;98576.47;5083192;27;103780;-68
2023/10/13 03:06:32;;;;;;;1247.15;999.90;;;;;;;22.58;57.90;98574.13;5084684;27;103571;-68
2023/10/13 03:09:13;;;;;;;1236.60;999.90;;;;;;;22.05;59.05;98567.25;5066052;27;104195;-68
2023/10/13 03:11:42;;;;;;;1242.80;999.90;;;;;;;22.23;58.84;98562.31;5083764;27;102811;-68
2023/10/13 03:14:23;;;;;;;1238.07;999.90;;;;;;;22.07;59.76;98571.41;5084564;27;102664;-68
2023/10/13 03:16:52;;;;;;;1204.32;999.90;;;;;;;21.15;61.72;98575.34;5082363;27;103335;-68
2023/10/13 03:19:21;;;;;;;1194.63;999.90;;;;;;;21.67;60.90;98575.34;5066424;27;103285;-68
2023/10/13 03:21:54;;;;;;;1200.72;999.90;;;;;;;21.42;61.28;98565.06;5081633;27;102701;-68
2023/10/13 03:24:33;;;;;;;1187.47;999.90;;;;;;;21.54;60.90;98569.78;5065873;27;102777;-69
2023/10/13 03:27:09;;;;;;;1197.03;999.90;;;;;;;21.42;61.84;98565.06;5084957;27;103879;-69
2023/10/13 03:29:39;;;;;;;1209.95;999.90;;;;;;;21.54;61.04;98558.19;5084359;27;103230;-69
2023/10/13 03:32:11;;;;;;;1203.67;999.90;;;;;;;21.56;60.25;98566.94;5082056;27;102989;-68
2023/10/13 03:34:49;;;;;;;1223.28;999.90;;;;;;;21.57;60.66;98560.53;5080112;27;103967;-69
2023/10/13 03:37:35;;;;;;;1209.87;999.90;;;;;;;21.94;60.08;98560.47;5080916;27;103978;-69
2023/10/13 03:40:33;;;;;;;1215.18;999.90;;;;;;;21.92;59.46;98559.84;5081468;27;102993;-69
2023/10/13 03:43:03;;;;;;;1228.40;999.90;;;;;;;22.07;58.97;98557.97;5080293;27;102667;-69
2023/10/13 03:45:37;;;;;;;1223.10;999.90;;;;;;;22.02;58.96;98560.38;5078391;27;103096;-69
2023/10/13 03:48:08;;;;;;;1214.80;999.90;;;;;;;21.68;59.84;98557.38;5080384;27;103338;-69
2023/10/13 03:50:37;;;;;;;1204.20;999.90;;;;;;;21.37;59.75;98558.34;5080853;27;103274;-69
2023/10/13 03:53:12;;;;;;;1193.65;999.90;;;;;;;20.57;62.38;98559.81;5082399;27;102858;-69
2023/10/13 03:55:47;;;;;;;1193.82;999.90;;;;;;;20.08;63.54;98559.19;5062221;27;102767;-69
2023/10/13 03:58:17;;;;;;;1194.05;999.90;;;;;;;20.53;62.92;98563.00;5081319;27;104270;-69
2023/10/13 04:00:46;;;;;;;1208.88;999.90;;;;;;;21.17;61.39;98561.72;5083959;27;103286;-69
2023/10/13 04:03:17;;;;;;;1197.18;999.90;;;;;;;20.42;62.96;98566.94;5079248;27;102851;-69
2023/10/13 04:06:00;;;;;;;1194.23;999.90;;;;;;;19.98;65.11;98558.56;5083092;27;102937;-69
2023/10/13 04:09:37;;;;;;;1182.53;999.90;;;;;;;20.50;63.40;98560.66;5082105;27;104118;-69
2023/10/13 04:14:55;;;;;;;1202.63;999.90;;;;;;;21.15;60.20;98561.91;5037844;27;102884;-69
2023/10/13 04:17:14;;;;;;;1215.25;999.90;;;;;;;21.39;60.00;98555.47;5082381;27;103853;-69
2023/10/13 04:20:12;;;;;;;1233.70;999.90;;;;;;;21.65;59.29;98555.06;5081487;27;104287;-69
2023/10/13 04:25:38;;;;;;;1201.82;999.90;;;;;;;21.66;59.69;98554.03;5080514;27;103722;-69
2023/10/13 04:28:34;;;;;;;1210.60;999.90;;;;;;;21.62;59.17;98560.78;5082716;27;103881;-69
2023/10/13 04:31:12;;;;;;;1213.40;999.90;;;;;;;21.90;59.00;98557.31;5058995;27;105029;-68
2023/10/13 04:33:56;;;;;;;1192.82;999.90;;;;;;;21.75;59.36;98550.25;5073513;27;103325;-68
2023/10/13 04:36:45;;;;;;;1203.75;999.90;;;;;;;21.73;59.65;98547.75;5080312;27;102787;-69
2023/10/13 04:39:29;;;;;;;1137.57;999.90;;;;;;;21.31;61.30;98548.34;5083019;27;102710;-68
2023/10/13 04:42:13;;;;;;;1147.72;999.90;;;;;;;21.43;60.22;98546.03;5069929;27;103462;-69
2023/10/13 04:44:52;;;;;;;1145.88;999.90;;;;;;;21.49;60.44;98547.16;5079433;27;103162;-69
2023/10/13 04:47:22;;;;;;;1144.20;999.90;;;;;;;21.14;61.14;98544.13;5081848;27;102720;-69
2023/10/13 04:49:49;;;;;;;1136.30;999.90;;;;;;;21.69;59.51;98532.19;5082586;27;103731;-68
2023/10/13 04:52:50;;;;;;;1134.47;999.90;;;;;;;21.74;58.86;98532.44;5081877;27;103843;-69
2023/10/13 04:55:43;;;;;;;1155.27;999.90;;;;;;;21.66;59.03;98528.00;5078235;27;103615;-69
2023/10/13 04:58:14;;;;;;;1162.22;999.90;;;;;;;21.80;59.10;98534.41;5079776;27;102662;-69
2023/10/13 05:01:23;;;;;;;1144.93;999.90;;;;;;;21.29;59.97;98523.50;5080396;27;104373;-69
2023/10/13 05:03:53;;;;;;;1135.53;999.90;;;;;;;21.45;60.35;98524.34;5078975;27;103274;-69
2023/10/13 05:48:42;;;;;;;1117.78;999.90;;;;;;;20.04;63.79;98514.94;5082314;27;103815;-68
2023/10/13 06:30:04;;;;;;;1171.68;999.90;;;;;;;22.95;57.49;98538.94;5066870;27;104145;-67
2023/10/13 06:32:32;;;;;;;1183.18;999.90;;;;;;;23.14;57.72;98538.25;5084328;27;103774;-62
2023/10/13 06:35:06;;;;;;;1149.32;999.90;;;;;;;23.26;57.14;98534.03;5084705;27;103253;-67
2023/10/13 06:37:36;;;;;;;1153.50;999.90;;;;;;;23.25;56.81;98532.34;5065164;27;103142;-62
2023/10/13 06:40:22;;;;;;;1131.97;999.90;;;;;;;23.38;56.27;98531.66;5064225;27;102966;-68
2023/10/13 06:42:53;;;;;;;1134.65;999.90;;;;;;;23.26;55.83;98525.09;5083167;27;103405;-68
2023/10/13 06:45:21;;;;;;;1128.72;999.90;;;;;;;22.94;55.99;98521.09;5083153;27;103325;-62
2023/10/13 06:47:53;;;;;;;1129.65;999.90;;;;;;;23.13;55.94;98520.41;5084123;27;102561;-62
2023/10/13 06:50:24;;;;;;;1130.03;999.90;;;;;;;23.16;55.59;98520.03;5083464;27;102919;-62
2023/10/13 06:52:54;;;;;;;1134.93;999.90;;;;;;;23.29;55.34;98520.16;5084983;27;104018;-63
2023/10/13 06:55:27;;;;;;;1122.93;999.90;;;;;;;23.19;55.50;98530.44;5081130;27;103123;-63
2023/10/13 06:57:59;;;;;;;1139.88;999.90;;;;;;;23.37;55.19;98529.94;5083988;27;102641;-63
2023/10/13 07:00:29;;;;;;;1119.53;999.90;;;;;;;23.22;55.22;98530.03;5065450;27;104266;-62
2023/10/13 07:03:05;;;;;;;1095.55;999.90;;;;;;;23.40;54.74;98533.13;5062277;27;103168;-67
2023/10/13 07:05:38;;;;;;;1110.28;999.90;;;;;;;23.99;53.77;98529.97;5070811;27;103268;-63
2023/10/13 07:08:07;;;;;;;1080.80;999.90;;;;;;;24.25;52.60;98526.59;5079632;27;102732;-63
2023/10/13 07:10:44;;;;;;;1096.18;999.90;;;;;;;24.35;52.70;98527.03;5061323;27;104498;-63
2023/10/13 07:13:14;;;;;;;1128.27;999.90;;;;;;;24.63;51.96;98520.50;5059546;27;104234;-67
2023/10/13 07:15:45;;;;;;;1106.28;999.90;;;;;;;24.88;51.22;98523.47;5081287;27;103187;-67
2023/10/13 07:18:15;;;;;;;1084.80;999.90;;;;;;;24.86;50.69;98516.59;5083253;27;102590;-67
2023/10/13 07:20:44;;;;;;;1075.40;999.90;;;;;;;24.74;51.06;98525.28;5081073;27;102731;-67
2023/10/13 07:23:17;;;;;;;1078.32;999.90;;;;;;;24.62;51.52;98518.81;5079708;27;104284;-67
2023/10/13 07:25:53;;;;;;;1110.43;999.90;;;;;;;25.01;50.76;98525.38;5080394;27;103199;-63
2023/10/13 07:28:22;;;;;;;1122.53;999.90;;;;;;;25.11;50.80;98517.66;5081358;27;102652;-67
2023/10/13 07:31:11;;;;;;;1116.32;999.90;;;;;;;25.22;50.01;98526.00;5080510;27;102720;-67
2023/10/13 07:33:40;;;;;;;1116.55;999.90;;;;;;;25.51;49.51;98523.94;5059687;27;103533;-63
2023/10/13 07:36:17;;;;;;;1107.40;999.90;;;;;;;25.88;49.09;98515.13;5078745;27;103263;-66
2023/10/13 07:38:59;;;;;;;1101.18;999.90;;;;;;;25.67;49.45;98513.50;5082626;27;103022;-67
2023/10/13 07:41:51;;;;;;;1103.65;999.90;;;;;;;26.48;48.32;98522.00;5062246;27;102729;-67
2023/10/13 07:44:24;;;;;;;1107.90;999.90;;;;;;;26.43;48.33;98514.53;5079765;27;103063;-64
2023/10/13 07:47:04;;;;;;;1078.23;999.90;;;;;;;26.23;49.00;98515.66;5080903;27;103237;-67
2023/10/13 07:49:36;;;;;;;1048.28;983.08;;;;;;;26.44;48.29;98510.75;5080744;27;102696;-66
2023/10/13 07:52:36;;;;;;;1041.05;978.72;;;;;;;26.65;48.04;98511.47;5082292;27;104026;-67
2023/10/13 07:55:20;;;;;;;972.45;916.97;;;;;;;27.06;46.86;98504.53;5077050;27;103387;-64
2023/10/13 07:57:54;;;;;;;965.70;910.90;;;;;;;27.86;46.44;98510.94;5059918;27;103191;-67
2023/10/13 08:00:46;;;;;;;975.08;918.45;;;;;;;27.95;46.81;98515.03;5063618;27;102617;-67
2023/10/13 08:06:26;;;;;;;948.57;894.50;;;;;;;27.14;46.37;98500.75;5095919;27;102793;-65
2023/10/13 08:09:07;;;;;;;990.80;932.90;;;;;;;27.62;46.83;98500.97;5060162;27;102722;-69
2023/10/13 08:11:37;;;;;;;933.30;881.22;;;;;;;28.26;46.19;98499.63;5075298;27;104013;-69
2023/10/13 08:14:22;;;;;;;869.95;824.83;;;;;;;28.14;45.38;98497.69;5070694;27;103306;-67
2023/10/13 08:17:07;;;;;;;888.13;841.20;;;;;;;29.50;44.93;98491.53;5076570;27;102773;-63
2023/10/13 08:19:44;;;;;;;643.70;616.10;;;;;;;28.25;43.12;98489.81;5077870;27;104083;-63
2023/10/13 08:22:35;;;;;;;601.70;576.75;;;;;;;28.99;42.80;98484.81;5075062;27;103310;-67
2023/10/13 08:25:24;;;;;;;554.40;531.58;;;;;;;28.81;42.87;98493.03;5069550;27;103220;-67
2023/10/13 08:28:45;;;;;;;576.45;552.83;;;;;;;28.23;41.98;98486.50;5072658;27;104307;-67
2023/10/13 08:30:53;;;;;;;497.25;477.33;;;;;;;28.46;41.18;98476.59;5071011;27;103996;-63
2023/10/13 08:33:26;;;;;;;486.83;467.40;;;;;;;28.34;41.14;98474.88;5076042;27;103817;-63
2023/10/13 08:36:18;;;;;;;571.53;548.35;;;;;;;28.92;40.96;98473.22;5069558;27;103270;-64
2023/10/13 08:38:55;;;;;;;450.30;432.90;;;;;;;29.02;40.39;98468.03;5072908;27;103152;-63
2023/10/13 08:41:28;;;;;;;457.27;439.60;;;;;;;28.70;40.80;98470.19;5054726;27;102699;-63
2023/10/13 08:44:09;;;;;;;444.17;427.30;;;;;;;29.33;39.95;98471.53;5074532;27;103519;-64
2023/10/13 08:47:03;;;;;;;458.90;441.30;;;;;;;28.75;40.64;98467.63;5067578;27;103251;-67
2023/10/13 08:49:39;;;;;;;451.83;434.63;;;;;;;28.95;40.60;98456.44;5071667;27;102695;-69
2023/10/13 08:57:49;;;;;;;415.77;399.98;;;;;;;30.05;39.32;98457.38;5052472;27;104338;-66
2023/10/13 09:00:55;;;;;;;407.25;392.02;;;;;;;30.23;39.68;98453.66;5072484;27;102660;-66
2023/10/13 09:03:38;;;;;;;388.02;373.38;;;;;;;30.46;38.65;98450.06;5070849;27;103690;-66
2023/10/13 09:06:06;;;;;;;397.38;382.10;;;;;;;29.88;39.38;98462.75;5073041;27;103429;-64
2023/10/13 09:09:04;;;;;;;380.60;365.77;;;;;;;30.25;39.61;98451.53;5072971;27;103238;-66
2023/10/13 09:11:48;;;;;;;374.10;359.40;;;;;;;30.26;38.49;98459.44;5074298;27;103031;-67
2023/10/13 09:17:11;;;;;;;393.27;377.93;;;;;;;31.62;37.66;98441.94;5055372;27;103870;-67
2023/10/13 09:19:55;;;;;;;450.85;432.67;;;;;;;31.56;36.27;98443.78;5042805;27;104364;-69
2023/10/13 09:22:27;;;;;;;520.10;498.02;;;;;;;31.62;36.67;98441.09;5056712;27;102562;-69
2023/10/13 09:24:58;;;;;;;415.15;398.30;;;;;;;31.31;37.90;98446.09;5057924;27;103610;-70
2023/10/13 09:27:29;;;;;;;502.58;481.65;;;;;;;31.66;36.55;98443.09;5052577;27;103653;-69
2023/10/13 09:30:10;;;;;;;621.20;592.22;;;;;;;31.28;34.77;98443.03;5062183;27;103262;-70
2023/10/13 09:32:46;;;;;;;716.08;680.00;;;;;;;31.33;33.88;98443.94;5061802;27;102980;-66
2023/10/13 09:35:18;;;;;;;726.17;688.70;;;;;;;31.46;33.34;98438.16;5057665;27;102928;-70
2023/10/13 09:37:47;;;;;;;726.30;688.78;;;;;;;31.69;32.38;98431.69;5058657;27;103378;-70
2023/10/13 09:40:30;;;;;;;730.67;692.97;;;;;;;31.56;33.36;98438.31;5040992;27;104415;-69
2023/10/13 09:43:07;;;;;;;770.70;729.42;;;;;;;31.80;32.67;98432.63;5042514;27;103055;-70
2023/10/13 09:45:38;;;;;;;780.58;739.35;;;;;;;31.22;33.20;98420.28;5057859;27;103836;-69
2023/10/13 09:48:16;;;;;;;769.43;728.67;;;;;;;31.30;32.86;98421.78;5059459;27;103599;-69
2023/10/13 09:50:45;;;;;;;755.78;715.95;;;;;;;30.86;33.31;98409.88;5053833;27;103204;-66
2023/10/13 09:53:17;;;;;;;760.08;719.63;;;;;;;30.90;32.91;98405.59;5058896;27;102757;-67
2023/10/13 09:55:48;;;;;;;775.70;733.60;;;;;;;31.53;32.45;98405.22;5060911;27;103019;-66
2023/10/13 09:58:18;;;;;;;758.20;716.78;;;;;;;31.62;32.31;98397.41;5058955;27;103505;-66
2023/10/13 10:00:57;;;;;;;787.13;743.43;;;;;;;31.68;32.12;98401.88;5053529;27;103059;-66
2023/10/13 10:03:39;;;;;;;776.80;733.90;;;;;;;31.84;32.35;98395.53;5052414;27;103896;-66
2023/10/13 10:06:13;;;;;;;787.90;742.75;;;;;;;31.92;31.91;98397.81;5036032;27;103945;-66
2023/10/13 10:08:50;;;;;;;796.40;751.28;;;;;;;32.02;31.63;98400.72;5053619;27;103519;-66
2023/10/13 10:11:48;;;;;;;796.35;752.05;;;;;;;32.18;31.49;98394.31;5054552;27;103201;-67
2023/10/13 10:14:30;;;;;;;787.78;743.35;;;;;;;32.39;31.77;98388.00;5037510;27;102713;-66
2023/10/13 10:17:08;;;;;;;805.27;760.23;;;;;;;32.67;31.28;98385.00;5041249;27;104072;-66
2023/10/13 10:19:54;;;;;;;799.80;754.38;;;;;;;32.90;30.94;98377.56;5047432;27;103285;-66
2023/10/13 10:22:33;;;;;;;795.50;750.05;;;;;;;33.15;30.91;98375.84;5061313;27;103263;-66
2023/10/13 10:25:21;;;;;;;809.28;763.30;;;;;;;32.80;30.97;98372.81;5062019;27;102665;-66
2023/10/13 10:27:56;;;;;;;815.35;768.67;;;;;;;32.05;31.72;98381.06;5040052;27;104231;-66
2023/10/13 10:30:29;;;;;;;793.50;748.55;;;;;;;32.40;31.38;98378.69;5037746;27;103781;-67
2023/10/13 10:33:00;;;;;;;821.20;774.97;;;;;;;32.17;31.93;98373.53;5058354;27;103272;-66
2023/10/13 10:35:29;;;;;;;824.33;777.00;;;;;;;32.14;31.98;98371.34;5060264;27;102731;-66
2023/10/13 10:38:03;;;;;;;809.63;763.67;;;;;;;32.45;31.26;98367.81;5054416;27;103365;-66
2023/10/13 10:40:46;;;;;;;822.47;775.67;;;;;;;32.73;31.40;98365.94;5043047;27;104281;-67
2023/10/13 10:43:17;;;;;;;809.87;763.97;;;;;;;32.27;31.69;98362.72;5043362;27;104247;-67
2023/10/13 10:46:02;;;;;;;826.78;778.97;;;;;;;32.02;31.73;98349.63;5061724;27;102789;-67
2023/10/13 10:48:33;;;;;;;807.55;761.70;;;;;;;32.36;31.70;98350.25;5054187;27;103721;-67
2023/10/13 10:51:13;;;;;;;830.15;783.28;;;;;;;32.03;31.61;98342.25;5060239;27;103647;-67
2023/10/13 10:53:44;;;;;;;824.73;778.07;;;;;;;32.88;31.01;98341.41;5056181;27;103264;-66
2023/10/13 10:56:36;;;;;;;802.10;756.90;;;;;;;32.89;31.13;98332.13;5056276;27;102815;-67
2023/10/13 10:59:18;;;;;;;813.10;767.80;;;;;;;33.13;30.36;98322.47;5037227;27;102707;-66
2023/10/13 11:01:50;;;;;;;801.35;756.00;;;;;;;32.52;30.78;98324.69;5047046;27;104502;-66
2023/10/13 11:04:24;;;;;;;818.20;772.45;;;;;;;32.74;30.71;98323.78;5054480;27;103188;-67
2023/10/13 11:06:56;;;;;;;799.20;754.00;;;;;;;32.87;nan;98318.69;5057264;27;102716;-67
2023/10/13 11:09:36;;;;;;;793.63;749.45;;;;;;;32.65;30.56;98309.78;5056173;27;115233;-66
2023/10/13 11:12:23;;;;;;;798.92;754.85;;;;;;;33.12;30.34;98307.16;5052221;27;103415;-67
2023/10/13 11:15:02;;;;;;;802.15;757.75;;;;;;;33.33;30.15;98305.31;5057315;27;103285;-67
2023/10/13 11:17:41;;;;;;;788.72;744.80;;;;;;;33.52;30.30;98310.06;5056068;27;102693;-66
2023/10/13 11:20:17;;;;;;;803.77;758.37;;;;;;;33.55;29.39;98308.72;5063523;27;103608;-67
2023/10/13 11:22:49;;;;;;;820.72;773.90;;;;;;;33.06;29.88;98305.47;5040605;27;104157;-67
2023/10/13 11:25:29;;;;;;;829.42;781.83;;;;;;;33.93;29.40;98294.63;5037825;27;104369;-67
2023/10/13 11:28:10;;;;;;;818.90;771.72;;;;;;;33.31;29.95;98291.91;5057614;27;102899;-67
2023/10/13 11:30:41;;;;;;;827.13;779.45;;;;;;;34.24;28.97;98290.88;5058177;27;102687;-68
2023/10/13 11:33:12;;;;;;;843.45;794.92;;;;;;;33.81;29.51;98291.31;5058710;27;103542;-67
2023/10/13 11:36:01;;;;;;;840.17;791.63;;;;;;;34.20;29.19;98286.22;5055905;27;103236;-67
2023/10/13 11:38:42;;;;;;;858.30;808.57;;;;;;;34.71;28.66;98290.63;5038423;27;103406;-70
2023/10/13 11:41:14;;;;;;;873.22;822.08;;;;;;;35.08;28.34;98284.00;5052017;27;103871;-70
2023/10/13 11:44:06;;;;;;;851.43;802.23;;;;;;;34.63;28.35;98282.97;5050872;27;103096;-67
2023/10/13 11:49:31;;;;;;;888.50;836.65;;;;;;;35.19;27.46;98274.66;5054883;27;103008;-67
2023/10/13 11:52:18;;;;;;;912.33;858.50;;;;;;;34.45;27.79;98269.78;5052476;27;102851;-68
2023/10/13 11:54:46;;;;;;;925.45;870.75;;;;;;;34.89;27.67;98265.34;5053786;27;105493;-67
2023/10/13 11:57:19;;;;;;;935.25;880.15;;;;;;;34.88;27.64;98260.97;5034120;27;104089;-67
2023/10/13 11:59:55;;;;;;;934.17;878.78;;;;;;;34.95;27.25;98261.50;5047579;27;102578;-67
2023/10/13 12:05:17;;;;;;;920.80;866.78;;;;;;;34.88;27.60;98252.75;5046899;27;103353;-68
2023/10/13 12:07:51;;;;;;;912.83;860.22;;;;;;;35.01;27.69;98250.50;5043524;27;103063;-67
2023/10/13 12:13:07;;;;;;;909.47;857.17;;;;;;;35.38;27.28;98256.44;5029279;27;104193;-67
2023/10/13 12:15:48;;;;;;;909.33;856.70;;;;;;;34.70;27.35;98238.78;5047225;27;103658;-67
2023/10/13 12:18:19;;;;;;;901.10;849.60;;;;;;;34.82;27.12;98233.81;5050084;27;103199;-67
2023/10/13 12:20:49;;;;;;;898.55;847.65;;;;;;;34.54;27.65;98229.72;5044806;27;102841;-67
2023/10/13 12:23:20;;;;;;;908.10;855.60;;;;;;;35.27;27.01;98227.41;5043530;27;103959;-68
2023/10/13 12:26:01;;;;;;;894.03;842.47;;;;;;;35.32;27.20;98230.13;5050707;27;104484;-67
2023/10/13 12:28:31;;;;;;;904.50;852.45;;;;;;;35.47;26.81;98221.81;5049278;27;104050;-69
2023/10/13 12:31:07;;;;;;;893.60;843.28;;;;;;;35.10;27.53;98221.41;5048013;27;102646;-70
2023/10/13 12:33:40;;;;;;;881.75;832.05;;;;;;;35.23;27.16;98220.84;5052619;27;103078;-70
2023/10/13 12:36:14;;;;;;;902.47;850.67;;;;;;;35.12;27.50;98211.00;5051342;27;104053;-70
2023/10/13 12:48:55;;;;;;;903.13;852.17;;;;;;;35.26;27.38;98221.09;5052199;27;103488;-70
2023/10/13 12:50:14;;;;;;;893.25;842.45;;;;;;;35.21;27.24;98190.09;5032004;27;104293;-70
2023/10/13 12:52:45;;;;;;;909.95;858.05;;;;;;;34.87;27.58;98195.41;5056705;27;103024;-70
2023/10/13 12:55:19;;;;;;;885.60;835.65;;;;;;;35.15;27.91;98180.22;5039701;27;104225;-70
2023/10/13 12:57:47;;;;;;;887.67;836.88;;;;;;;35.46;27.27;98176.22;5053428;27;104080;-70
2023/10/13 13:00:24;;;;;;;906.03;854.63;;;;;;;35.56;27.53;98170.72;5052167;27;103403;-69
2023/10/13 13:02:56;;;;;;;906.50;855.65;;;;;;;35.67;26.82;98176.97;5059100;27;102727;-70
2023/10/13 13:05:28;;;;;;;889.67;838.65;;;;;;;35.50;27.15;98166.31;5058223;27;103115;-70
2023/10/13 13:07:58;;;;;;;905.47;854.08;;;;;;;35.47;27.30;98167.72;5056442;27;103938;-70
2023/10/13 13:10:39;;;;;;;907.28;856.40;;;;;;;35.67;27.04;98155.00;5060011;27;103201;-70
2023/10/13 13:13:07;;;;;;;905.65;854.22;;;;;;;35.45;27.04;98156.19;5056273;27;102940;-70
2023/10/13 13:15:35;;;;;;;899.50;847.97;;;;;;;35.74;27.54;98149.97;5053332;27;102825;-70
2023/10/13 13:18:11;;;;;;;919.75;867.55;;;;;;;35.86;26.48;98142.19;5059780;27;103567;-70
2023/10/13 13:20:43;;;;;;;913.85;861.83;;;;;;;35.71;27.09;98142.31;5045210;27;104619;-67
2023/10/13 13:23:14;;;;;;;911.55;860.28;;;;;;;35.41;26.70;98140.56;5041080;27;103022;-67
2023/10/13 13:25:46;;;;;;;914.85;863.78;;;;;;;35.59;26.58;98137.19;5041180;27;104162;-70
2023/10/13 13:28:15;;;;;;;915.17;863.72;;;;;;;35.58;26.34;98141.03;5056254;27;104791;-70
2023/10/13 13:30:43;;;;;;;924.95;872.78;;;;;;;35.23;26.03;98133.00;5055328;27;103547;-70
2023/10/13 13:33:11;;;;;;;927.23;874.97;;;;;;;35.99;26.53;98125.88;5054473;27;102765;-70